createdAt,value
2023-05-05T00:00:21.415Z,102518.14
2023-05-05T00:01:44.265Z,102517.66
2023-05-05T00:02:48.170Z,102519.03
2023-05-05T00:03:51.136Z,102518.05
2023-05-05T00:04:53.996Z,102517.77
2023-05-05T00:05:57.466Z,102514.86
2023-05-05T00:07:00.536Z,102522.10
2023-05-05T00:08:03.563Z,102516.85
2023-05-05T00:09:07.113Z,102519.75
2023-05-05T00:10:10.601Z,102520.69
2023-05-05T00:11:13.463Z,102520.09
2023-05-05T00:12:16.213Z,102520.29
2023-05-05T00:13:20.698Z,102520.05
2023-05-05T00:14:23.582Z,102525.31
2023-05-05T00:15:27.450Z,102527.56
2023-05-05T00:16:30.490Z,102524.02
2023-05-05T00:17:33.441Z,102522.23
2023-05-05T00:18:36.300Z,102525.91
2023-05-05T00:19:39.242Z,102523.75
2023-05-05T00:20:42.879Z,102522.48
2023-05-05T00:21:45.734Z,102524.16
2023-05-05T00:22:48.780Z,102524.16
2023-05-05T00:23:51.811Z,102523.03
2023-05-05T00:24:54.754Z,102526.95
2023-05-05T00:25:57.543Z,102532.41
2023-05-05T00:27:02.167Z,102531.14
2023-05-05T00:28:05.316Z,102533.23
2023-05-05T00:29:08.320Z,102535.50
2023-05-05T00:30:11.596Z,102538.36
2023-05-05T00:31:17.485Z,102537.60
2023-05-05T00:32:20.414Z,102533.19
2023-05-05T00:33:23.641Z,102534.55
2023-05-05T00:34:26.484Z,102540.23
2023-05-05T00:35:29.397Z,102540.83
2023-05-05T00:36:32.250Z,102540.77
2023-05-05T00:37:35.045Z,102540.73
2023-05-05T00:38:38.200Z,102537.05
2023-05-05T00:39:41.058Z,102537.11
2023-05-05T00:40:44.033Z,102540.48
2023-05-05T00:41:46.909Z,102541.63
2023-05-05T00:42:50.913Z,102542.94
2023-05-05T00:43:53.763Z,102544.89
2023-05-05T00:44:57.476Z,102541.80
2023-05-05T00:46:04.194Z,102543.23
2023-05-05T00:47:09.320Z,102544.00
2023-05-05T00:48:12.267Z,102548.41
2023-05-05T00:49:16.462Z,102546.05
2023-05-05T00:50:30.540Z,102545.85
2023-05-05T00:51:35.320Z,102551.11
2023-05-05T00:52:39.017Z,102549.17
2023-05-05T00:53:44.956Z,102548.95
2023-05-05T00:54:48.065Z,102546.77
2023-05-05T00:55:51.450Z,102548.34
2023-05-05T00:56:54.433Z,102551.23
2023-05-05T00:57:58.942Z,102545.02
2023-05-05T00:59:02.675Z,102548.03
2023-05-05T01:00:06.421Z,102543.23
2023-05-05T01:01:11.407Z,102545.30
2023-05-05T01:02:14.481Z,102542.83
2023-05-05T01:03:17.462Z,102541.59
2023-05-05T01:04:20.354Z,102541.26
2023-05-05T01:05:27.046Z,102540.45
2023-05-05T01:07:04.043Z,102534.73
2023-05-05T01:08:28.244Z,102541.92
2023-05-05T01:09:42.908Z,102538.81
2023-05-05T01:10:52.473Z,102542.17
2023-05-05T01:12:05.309Z,102541.02
2023-05-05T01:13:24.888Z,102544.11
2023-05-05T01:14:39.974Z,102543.41
2023-05-05T01:15:50.629Z,102545.03
2023-05-05T01:16:53.373Z,102548.42
2023-05-05T01:18:09.803Z,102550.35
2023-05-05T01:19:36.105Z,102554.89
2023-05-05T01:20:49.447Z,102553.31
2023-05-05T01:21:57.202Z,102550.23
2023-05-05T01:23:05.920Z,102552.71
2023-05-05T01:24:46.957Z,102552.61
2023-05-05T01:26:16.274Z,102547.18
2023-05-05T01:27:46.678Z,102546.77
2023-05-05T01:29:14.784Z,102548.27
2023-05-05T01:32:02.464Z,102549.80
2023-05-05T01:33:11.109Z,102550.52
2023-05-05T01:34:17.150Z,102547.88
2023-05-05T01:35:27.237Z,102546.75
2023-05-05T01:36:37.123Z,102541.23
2023-05-05T01:37:46.003Z,102543.40
2023-05-05T01:38:55.814Z,102539.52
2023-05-05T01:40:03.829Z,102544.23
2023-05-05T01:41:19.638Z,102540.77
2023-05-05T01:42:25.257Z,102540.43
2023-05-05T01:43:32.435Z,102541.89
2023-05-05T01:44:37.779Z,102536.73
2023-05-05T01:45:43.877Z,102539.13
2023-05-05T01:46:48.876Z,102542.16
2023-05-05T01:47:52.619Z,102540.00
2023-05-05T01:48:56.783Z,102536.89
2023-05-05T01:50:00.451Z,102539.02
2023-05-05T01:51:05.289Z,102538.69
2023-05-05T01:52:09.989Z,102534.84
2023-05-05T01:53:13.419Z,102535.44
2023-05-05T01:54:18.723Z,102539.60
2023-05-05T01:55:25.823Z,102538.14
2023-05-05T01:56:31.574Z,102541.02
2023-05-05T01:57:36.818Z,102539.96
2023-05-05T01:58:43.884Z,102542.01
2023-05-05T01:59:46.996Z,102538.73
2023-05-05T02:00:51.826Z,102539.11
2023-05-05T02:01:57.452Z,102540.98
2023-05-05T02:03:05.160Z,102537.32
2023-05-05T02:04:11.932Z,102533.22
2023-05-05T02:05:17.124Z,102538.52
2023-05-05T02:06:21.967Z,102535.58
2023-05-05T02:07:26.315Z,102536.41
2023-05-05T02:08:31.420Z,102538.15
2023-05-05T02:09:34.604Z,102536.05
2023-05-05T02:10:40.988Z,102536.33
2023-05-05T02:11:44.095Z,102536.67
2023-05-05T02:12:47.846Z,102534.73
2023-05-05T02:13:52.322Z,102535.02
2023-05-05T02:14:56.297Z,102534.45
2023-05-05T02:16:00.432Z,102534.11
2023-05-05T02:17:04.080Z,102530.81
2023-05-05T02:18:07.591Z,102534.30
2023-05-05T02:19:13.066Z,102532.22
2023-05-05T02:20:17.079Z,102531.48
2023-05-05T02:21:20.662Z,102528.98
2023-05-05T02:22:23.484Z,102528.26
2023-05-05T02:23:26.445Z,102532.67
2023-05-05T02:24:30.198Z,102534.51
2023-05-05T02:25:40.124Z,102539.42
2023-05-05T02:26:45.906Z,102537.85
2023-05-05T02:27:53.216Z,102534.86
2023-05-05T02:29:05.661Z,102541.61
2023-05-05T02:30:11.300Z,102542.17
2023-05-05T02:31:16.572Z,102542.07
2023-05-05T02:32:34.161Z,102542.55
2023-05-05T02:33:38.401Z,102548.13
2023-05-05T02:34:44.853Z,102542.73
2023-05-05T02:35:51.903Z,102546.98
2023-05-05T02:37:00.837Z,102548.10
2023-05-05T02:38:09.635Z,102551.41
2023-05-05T02:39:24.151Z,102547.75
2023-05-05T02:40:30.036Z,102546.48
2023-05-05T02:41:36.128Z,102543.79
2023-05-05T02:42:46.378Z,102545.69
2023-05-05T02:43:51.097Z,102543.23
2023-05-05T02:44:59.135Z,102542.67
2023-05-05T02:46:02.145Z,102545.99
2023-05-05T02:47:05.183Z,102547.86
2023-05-05T02:48:10.595Z,102551.92
2023-05-05T02:49:15.152Z,102548.77
2023-05-05T02:50:18.908Z,102550.55
2023-05-05T02:51:28.829Z,102554.13
2023-05-05T02:52:34.103Z,102548.42
2023-05-05T02:53:37.158Z,102554.83
2023-05-05T02:54:40.326Z,102552.31
2023-05-05T02:55:55.010Z,102556.27
2023-05-05T02:57:01.363Z,102558.20
2023-05-05T02:58:07.615Z,102556.36
2023-05-05T02:59:21.901Z,102556.02
2023-05-05T03:00:52.635Z,102560.48
2023-05-05T03:02:27.299Z,102561.09
2023-05-05T03:04:15.484Z,102562.34
2023-05-05T03:05:24.342Z,102559.44
2023-05-05T03:06:29.244Z,102560.41
2023-05-05T03:07:39.321Z,102561.08
2023-05-05T03:08:52.593Z,102568.27
2023-05-05T03:09:57.833Z,102560.02
2023-05-05T03:11:06.854Z,102565.27
2023-05-05T03:12:16.597Z,102563.98
2023-05-05T03:13:37.773Z,102566.14
2023-05-05T03:14:44.682Z,102566.92
2023-05-05T03:15:52.426Z,102562.78
2023-05-05T03:16:57.230Z,102564.56
2023-05-05T03:18:02.481Z,102567.90
2023-05-05T03:19:08.652Z,102568.44
2023-05-05T03:20:12.565Z,102570.73
2023-05-05T03:21:16.971Z,102569.45
2023-05-05T03:22:19.890Z,102575.62
2023-05-05T03:23:23.127Z,102574.59
2023-05-05T03:24:29.862Z,102570.74
2023-05-05T03:25:50.087Z,102572.72
2023-05-05T03:27:01.558Z,102571.81
2023-05-05T03:28:08.346Z,102573.91
2023-05-05T03:29:12.213Z,102575.98
2023-05-05T03:30:15.548Z,102573.31
2023-05-05T03:31:23.635Z,102574.24
2023-05-05T03:32:30.887Z,102574.34
2023-05-05T03:33:33.733Z,102578.02
2023-05-05T03:34:37.831Z,102579.81
2023-05-05T03:35:41.347Z,102579.14
2023-05-05T03:36:45.594Z,102577.48
2023-05-05T03:37:49.366Z,102577.23
2023-05-05T03:38:52.382Z,102584.50
2023-05-05T03:39:55.510Z,102586.38
2023-05-05T03:41:02.136Z,102577.01
2023-05-05T03:42:05.181Z,102580.34
2023-05-05T03:43:08.532Z,102581.41
2023-05-05T03:44:11.409Z,102590.79
2023-05-05T03:45:14.416Z,102588.98
2023-05-05T03:46:17.511Z,102589.13
2023-05-05T03:47:20.557Z,102588.73
2023-05-05T03:48:23.396Z,102589.94
2023-05-05T03:49:26.737Z,102594.96
2023-05-05T03:50:30.138Z,102596.91
2023-05-05T03:51:32.999Z,102601.59
2023-05-05T03:52:36.043Z,102597.00
2023-05-05T03:53:39.156Z,102602.41
2023-05-05T03:54:43.132Z,102600.95
2023-05-05T03:55:46.307Z,102604.41
2023-05-05T03:56:49.134Z,102608.48
2023-05-05T03:57:51.886Z,102603.06
2023-05-05T03:58:54.722Z,102607.58
2023-05-05T03:59:57.576Z,102606.98
2023-05-05T04:01:00.653Z,102608.62
2023-05-05T04:02:03.595Z,102609.47
2023-05-05T04:03:06.808Z,102613.64
2023-05-05T04:04:10.301Z,102614.27
2023-05-05T04:05:13.236Z,102614.88
2023-05-05T04:06:16.255Z,102620.80
2023-05-05T04:07:19.199Z,102618.49
2023-05-05T04:08:22.081Z,102621.23
2023-05-05T04:09:24.904Z,102623.30
2023-05-05T04:10:28.181Z,102618.09
2023-05-05T04:11:31.358Z,102617.25
2023-05-05T04:12:34.243Z,102622.77
2023-05-05T04:13:37.108Z,102618.89
2023-05-05T04:14:39.868Z,102623.52
2023-05-05T04:15:46.585Z,102622.02
2023-05-05T04:16:50.053Z,102622.54
2023-05-05T04:17:52.948Z,102623.77
2023-05-05T04:18:55.864Z,102622.55
2023-05-05T04:19:58.787Z,102624.27
2023-05-05T04:21:01.770Z,102621.25
2023-05-05T04:22:04.662Z,102622.80
2023-05-05T04:23:07.545Z,102623.58
2023-05-05T04:24:10.547Z,102626.98
2023-05-05T04:25:13.381Z,102631.88
2023-05-05T04:26:16.491Z,102629.77
2023-05-05T04:27:19.473Z,102626.07
2023-05-05T04:28:22.304Z,102628.42
2023-05-05T04:29:25.277Z,102631.70
2023-05-05T04:30:28.281Z,102631.84
2023-05-05T04:31:32.100Z,102629.92
2023-05-05T04:32:35.869Z,102632.55
2023-05-05T04:33:38.847Z,102635.50
2023-05-05T04:34:41.848Z,102634.84
2023-05-05T04:35:44.737Z,102633.54
2023-05-05T04:36:47.775Z,102632.67
2023-05-05T04:37:51.131Z,102637.55
2023-05-05T04:38:54.023Z,102636.80
2023-05-05T04:39:57.014Z,102638.14
2023-05-05T04:41:00.082Z,102639.04
2023-05-05T04:42:03.267Z,102640.73
2023-05-05T04:43:07.582Z,102642.31
2023-05-05T04:44:10.476Z,102641.52
2023-05-05T04:45:13.631Z,102647.52
2023-05-05T04:46:17.013Z,102639.34
2023-05-05T04:47:19.969Z,102643.38
2023-05-05T04:48:23.356Z,102645.87
2023-05-05T04:49:28.867Z,102647.84
2023-05-05T04:50:32.367Z,102642.15
2023-05-05T04:51:35.249Z,102644.96
2023-05-05T04:52:38.156Z,102647.09
2023-05-05T04:53:40.944Z,102651.77
2023-05-05T04:54:43.994Z,102653.06
2023-05-05T04:55:46.831Z,102652.30
2023-05-05T04:56:50.339Z,102654.27
2023-05-05T04:59:12.217Z,102656.52
2023-05-05T05:02:45.523Z,102657.31
2023-05-05T05:03:57.100Z,102663.49
2023-05-05T05:05:11.524Z,102664.02
2023-05-05T05:06:14.884Z,102667.36
2023-05-05T05:07:18.047Z,102660.69
2023-05-05T05:08:21.059Z,102660.84
2023-05-05T05:09:23.888Z,102666.18
2023-05-05T05:10:26.974Z,102662.50
2023-05-05T05:11:29.868Z,102666.76
2023-05-05T05:12:32.725Z,102670.27
2023-05-05T05:13:35.568Z,102665.83
2023-05-05T05:14:38.952Z,102670.02
2023-05-05T05:15:42.171Z,102671.03
2023-05-05T05:16:45.577Z,102673.59
2023-05-05T05:17:48.620Z,102675.99
2023-05-05T05:18:51.432Z,102670.90
2023-05-05T05:19:55.430Z,102668.30
2023-05-05T05:20:58.628Z,102678.16
2023-05-05T05:22:01.463Z,102675.95
2023-05-05T05:23:05.299Z,102679.33
2023-05-05T05:24:11.609Z,102678.72
2023-05-05T05:25:14.692Z,102684.81
2023-05-05T05:26:17.882Z,102680.42
2023-05-05T05:27:20.781Z,102682.86
2023-05-05T05:28:24.401Z,102684.75
2023-05-05T05:29:30.891Z,102684.02
2023-05-05T05:30:34.579Z,102681.96
2023-05-05T05:31:40.090Z,102684.44
2023-05-05T05:32:43.043Z,102687.45
2023-05-05T05:33:46.209Z,102680.74
2023-05-05T05:34:49.468Z,102686.65
2023-05-05T05:35:52.622Z,102689.83
2023-05-05T05:36:56.624Z,102691.05
2023-05-05T05:37:59.516Z,102691.14
2023-05-05T05:39:02.326Z,102687.30
2023-05-05T05:40:06.338Z,102689.08
2023-05-05T05:41:09.511Z,102688.27
2023-05-05T05:42:13.282Z,102689.73
2023-05-05T05:43:16.515Z,102688.92
2023-05-05T05:44:19.365Z,102691.52
2023-05-05T05:45:22.957Z,102692.41
2023-05-05T05:46:25.934Z,102689.25
2023-05-05T05:47:29.066Z,102688.73
2023-05-05T05:48:31.967Z,102687.17
2023-05-05T05:49:34.820Z,102691.20
2023-05-05T05:50:37.662Z,102688.26
2023-05-05T05:51:40.574Z,102691.16
2023-05-05T05:52:43.386Z,102686.88
2023-05-05T05:53:46.432Z,102689.45
2023-05-05T05:54:49.904Z,102694.00
2023-05-05T05:55:52.787Z,102691.38
2023-05-05T05:56:55.689Z,102688.39
2023-05-05T05:57:58.717Z,102696.10
2023-05-05T05:59:02.701Z,102692.53
2023-05-05T06:00:06.346Z,102696.05
2023-05-05T06:01:15.984Z,102699.09
2023-05-05T06:02:20.848Z,102692.84
2023-05-05T06:03:24.430Z,102699.34
2023-05-05T06:04:27.431Z,102698.63
2023-05-05T06:05:31.388Z,102703.43
2023-05-05T06:06:34.867Z,102701.63
2023-05-05T06:07:37.703Z,102701.95
2023-05-05T06:08:40.934Z,102705.45
2023-05-05T06:09:43.854Z,102702.52
2023-05-05T06:10:48.192Z,102704.54
2023-05-05T06:11:53.096Z,102704.63
2023-05-05T06:12:57.139Z,102705.00
2023-05-05T06:14:00.588Z,102706.71
2023-05-05T06:15:03.602Z,102703.23
2023-05-05T06:16:06.908Z,102703.04
2023-05-05T06:17:09.990Z,102706.35
2023-05-05T06:18:13.031Z,102702.41
2023-05-05T06:19:16.108Z,102711.40
2023-05-05T06:20:19.457Z,102702.58
2023-05-05T06:21:22.354Z,102704.03
2023-05-05T06:22:25.401Z,102704.70
2023-05-05T06:23:28.509Z,102706.09
2023-05-05T06:24:35.104Z,102708.42
2023-05-05T06:25:37.980Z,102708.63
2023-05-05T06:26:40.932Z,102714.58
2023-05-05T06:27:43.904Z,102710.89
2023-05-05T06:28:46.751Z,102715.11
2023-05-05T06:29:49.602Z,102717.92
2023-05-05T06:30:52.629Z,102717.14
2023-05-05T06:31:55.693Z,102721.98
2023-05-05T06:32:58.491Z,102718.92
2023-05-05T06:34:01.389Z,102716.80
2023-05-05T06:35:05.067Z,102720.02
2023-05-05T06:36:08.181Z,102721.86
2023-05-05T06:37:11.225Z,102717.64
2023-05-05T06:38:13.982Z,102721.98
2023-05-05T06:39:17.041Z,102720.86
2023-05-05T06:40:19.937Z,102721.41
2023-05-05T06:41:22.748Z,102721.89
2023-05-05T06:42:25.623Z,102725.88
2023-05-05T06:43:29.389Z,102726.14
2023-05-05T06:44:36.372Z,102729.27
2023-05-05T06:45:40.056Z,102725.44
2023-05-05T06:46:43.782Z,102730.48
2023-05-05T06:47:47.034Z,102730.66
2023-05-05T06:48:50.239Z,102734.30
2023-05-05T06:49:53.034Z,102736.70
2023-05-05T06:50:56.663Z,102736.59
2023-05-05T06:51:59.514Z,102730.48
2023-05-05T06:53:02.426Z,102731.96
2023-05-05T06:54:05.204Z,102726.13
2023-05-05T06:55:08.563Z,102729.23
2023-05-05T06:56:11.760Z,102729.23
2023-05-05T06:57:14.591Z,102734.55
2023-05-05T06:58:17.418Z,102731.05
2023-05-05T06:59:20.272Z,102732.66
2023-05-05T07:00:23.406Z,102731.30
2023-05-05T07:01:26.813Z,102731.96
2023-05-05T07:02:29.763Z,102733.66
2023-05-05T07:03:32.740Z,102738.33
2023-05-05T07:04:35.683Z,102736.64
2023-05-05T07:05:38.513Z,102736.08
2023-05-05T07:06:41.653Z,102737.59
2023-05-05T07:07:57.126Z,102740.27
2023-05-05T07:08:59.989Z,102741.99
2023-05-05T07:10:02.728Z,102736.02
2023-05-05T07:11:05.543Z,102738.79
2023-05-05T07:12:08.451Z,102738.63
2023-05-05T07:13:11.340Z,102745.80
2023-05-05T07:14:14.142Z,102746.02
2023-05-05T07:15:28.167Z,102744.89
2023-05-05T07:16:34.731Z,102739.10
2023-05-05T07:17:37.704Z,102738.61
2023-05-05T07:18:40.507Z,102738.29
2023-05-05T07:19:44.121Z,102742.10
2023-05-05T07:20:46.996Z,102739.58
2023-05-05T07:21:49.760Z,102741.58
2023-05-05T07:22:52.708Z,102739.92
2023-05-05T07:23:55.606Z,102738.13
2023-05-05T07:24:58.429Z,102741.58
2023-05-05T07:26:01.270Z,102743.33
2023-05-05T07:27:04.052Z,102744.46
2023-05-05T07:28:07.091Z,102745.65
2023-05-05T07:29:09.949Z,102747.20
2023-05-05T07:30:15.545Z,102740.02
2023-05-05T07:31:22.051Z,102745.30
2023-05-05T07:32:24.926Z,102741.79
2023-05-05T07:33:27.803Z,102741.64
2023-05-05T07:34:32.791Z,102743.60
2023-05-05T07:35:35.548Z,102742.90
2023-05-05T07:36:38.507Z,102745.41
2023-05-05T07:37:41.309Z,102748.71
2023-05-05T07:38:44.510Z,102746.62
2023-05-05T07:39:48.671Z,102749.59
2023-05-05T07:40:51.480Z,102746.84
2023-05-05T07:41:54.306Z,102745.67
2023-05-05T07:42:57.039Z,102749.52
2023-05-05T07:44:01.331Z,102749.50
2023-05-05T07:45:05.354Z,102749.16
2023-05-05T07:46:08.428Z,102754.67
2023-05-05T07:47:11.437Z,102754.97
2023-05-05T07:48:14.159Z,102754.41
2023-05-05T07:49:17.320Z,102752.29
2023-05-05T07:50:20.550Z,102760.14
2023-05-05T07:51:23.308Z,102759.84
2023-05-05T07:52:43.724Z,102755.11
2023-05-05T07:53:49.155Z,102757.59
2023-05-05T07:54:52.341Z,102758.90
2023-05-05T07:55:55.641Z,102765.04
2023-05-05T07:56:58.389Z,102765.50
2023-05-05T07:58:01.304Z,102764.68
2023-05-05T07:59:04.237Z,102760.34
2023-05-05T08:00:07.914Z,102762.52
2023-05-05T08:01:16.974Z,102763.54
2023-05-05T08:02:19.957Z,102769.54
2023-05-05T08:03:24.870Z,102768.73
2023-05-05T08:04:28.020Z,102764.29
2023-05-05T08:05:31.196Z,102771.08
2023-05-05T08:06:34.083Z,102767.86
2023-05-05T08:07:40.928Z,102769.98
2023-05-05T08:08:43.903Z,102773.42
2023-05-05T08:09:46.646Z,102767.96
2023-05-05T08:10:50.449Z,102771.09
2023-05-05T08:11:53.178Z,102775.46
2023-05-05T08:12:55.964Z,102775.40
2023-05-05T08:13:58.751Z,102771.83
2023-05-05T08:15:01.600Z,102775.33
2023-05-05T08:16:04.841Z,102781.05
2023-05-05T08:17:07.699Z,102778.06
2023-05-05T08:18:10.480Z,102774.55
2023-05-05T08:19:27.560Z,102775.55
2023-05-05T08:20:32.114Z,102776.90
2023-05-05T08:21:35.432Z,102776.92
2023-05-05T08:22:38.265Z,102775.36
2023-05-05T08:23:41.127Z,102772.65
2023-05-05T08:24:43.872Z,102779.78
2023-05-05T08:25:46.728Z,102779.88
2023-05-05T08:26:49.666Z,102780.59
2023-05-05T08:27:52.555Z,102777.39
2023-05-05T08:28:56.772Z,102778.15
2023-05-05T08:29:59.627Z,102778.92
2023-05-05T08:31:06.830Z,102779.27
2023-05-05T08:32:09.856Z,102780.15
2023-05-05T08:33:12.813Z,102781.45
2023-05-05T08:34:15.990Z,102779.33
2023-05-05T08:35:18.857Z,102777.23
2023-05-05T08:36:21.879Z,102779.48
2023-05-05T08:37:24.893Z,102780.09
2023-05-05T08:38:27.818Z,102778.33
2023-05-05T08:39:30.769Z,102780.11
2023-05-05T08:40:37.001Z,102781.38
2023-05-05T08:41:39.841Z,102782.17
2023-05-05T08:42:43.126Z,102779.58
2023-05-05T08:43:48.115Z,102778.67
2023-05-05T08:44:51.526Z,102784.19
2023-05-05T08:45:56.270Z,102779.58
2023-05-05T08:47:00.810Z,102778.69
2023-05-05T08:48:05.459Z,102777.17
2023-05-05T08:49:15.463Z,102776.70
2023-05-05T08:50:19.957Z,102776.40
2023-05-05T08:51:28.366Z,102777.64
2023-05-05T08:52:38.876Z,102779.45
2023-05-05T08:53:44.861Z,102775.13
2023-05-05T08:54:57.163Z,102779.87
2023-05-05T08:56:00.914Z,102788.17
2023-05-05T08:57:10.463Z,102782.94
2023-05-05T08:58:14.494Z,102787.92
2023-05-05T08:59:19.016Z,102789.65
2023-05-05T09:00:23.476Z,102789.81
2023-05-05T09:01:27.255Z,102793.95
2023-05-05T09:02:31.282Z,102793.82
2023-05-05T09:03:37.261Z,102793.39
2023-05-05T09:04:40.811Z,102797.34
2023-05-05T09:05:44.416Z,102790.42
2023-05-05T09:06:47.403Z,102791.66
2023-05-05T09:07:51.041Z,102792.05
2023-05-05T09:08:55.132Z,102792.55
2023-05-05T09:10:00.701Z,102795.60
2023-05-05T09:11:03.537Z,102797.05
2023-05-05T09:12:06.598Z,102792.46
2023-05-05T09:13:09.517Z,102794.66
2023-05-05T09:14:13.008Z,102793.42
2023-05-05T09:15:15.987Z,102797.44
2023-05-05T09:16:18.793Z,102797.69
2023-05-05T09:17:23.927Z,102800.17
2023-05-05T09:18:27.225Z,102803.13
2023-05-05T09:19:29.971Z,102801.41
2023-05-05T09:20:37.298Z,102801.45
2023-05-05T09:21:49.694Z,102799.85
2023-05-05T09:22:53.210Z,102804.96
2023-05-05T09:24:11.841Z,102806.29
2023-05-05T09:25:16.535Z,102811.23
2023-05-05T09:26:19.516Z,102808.52
2023-05-05T09:27:23.374Z,102805.61
2023-05-05T09:28:26.988Z,102804.50
2023-05-05T09:29:29.944Z,102797.95
2023-05-05T09:30:33.830Z,102803.36
2023-05-05T09:31:37.775Z,102806.31
2023-05-05T09:32:44.717Z,102808.14
2023-05-05T09:33:47.729Z,102806.79
2023-05-05T09:35:01.236Z,102806.55
2023-05-05T09:36:04.099Z,102806.98
2023-05-05T09:37:07.241Z,102808.44
2023-05-05T09:38:13.174Z,102807.65
2023-05-05T09:39:20.170Z,102800.88
2023-05-05T09:40:23.118Z,102802.59
2023-05-05T09:41:40.277Z,102804.20
2023-05-05T09:42:44.675Z,102806.07
2023-05-05T09:43:51.934Z,102809.96
2023-05-05T09:44:59.121Z,102805.36
2023-05-05T09:46:07.713Z,102801.10
2023-05-05T09:47:25.916Z,102800.13
2023-05-05T09:48:32.451Z,102803.69
2023-05-05T09:49:36.818Z,102806.05
2023-05-05T09:50:44.136Z,102803.86
2023-05-05T09:51:48.051Z,102802.73
2023-05-05T09:52:57.522Z,102802.36
2023-05-05T09:54:00.573Z,102808.66
2023-05-05T09:55:03.691Z,102804.96
2023-05-05T09:56:07.101Z,102812.04
2023-05-05T09:57:26.109Z,102806.30
2023-05-05T09:58:30.651Z,102819.24
2023-05-05T09:59:33.874Z,102808.73
2023-05-05T10:00:39.268Z,102813.22
2023-05-05T10:01:43.823Z,102807.63
2023-05-05T10:02:47.158Z,102810.40
2023-05-05T10:03:52.219Z,102801.63
2023-05-05T10:05:09.043Z,102803.25
2023-05-05T10:06:12.015Z,102802.23
2023-05-05T10:07:27.442Z,102802.89
2023-05-05T10:08:33.588Z,102801.70
2023-05-05T10:09:36.484Z,102804.80
2023-05-05T10:10:50.871Z,102809.66
2023-05-05T10:11:56.660Z,102807.84
2023-05-05T10:12:59.567Z,102810.77
2023-05-05T10:14:04.750Z,102810.17
2023-05-05T10:15:09.052Z,102814.45
2023-05-05T10:16:13.378Z,102810.90
2023-05-05T10:17:17.428Z,102816.31
2023-05-05T10:18:23.311Z,102808.06
2023-05-05T10:19:29.497Z,102810.83
2023-05-05T10:20:33.449Z,102809.69
2023-05-05T10:21:42.088Z,102814.98
2023-05-05T10:22:55.968Z,102814.50
2023-05-05T10:24:09.481Z,102816.25
2023-05-05T10:25:16.004Z,102811.77
2023-05-05T10:26:20.048Z,102812.36
2023-05-05T10:27:24.662Z,102813.44
2023-05-05T10:28:32.769Z,102821.98
2023-05-05T10:30:01.520Z,102807.65
2023-05-05T10:31:16.420Z,102805.02
2023-05-05T10:33:45.281Z,102812.94
2023-05-05T10:34:57.573Z,102810.23
2023-05-05T10:36:02.654Z,102813.89
2023-05-05T10:37:06.979Z,102809.73
2023-05-05T10:38:12.898Z,102811.13
2023-05-05T10:39:19.890Z,102810.52
2023-05-05T10:40:22.802Z,102802.84
2023-05-05T10:41:26.901Z,102806.55
2023-05-05T10:42:30.074Z,102807.67
2023-05-05T10:43:33.737Z,102806.90
2023-05-05T10:44:36.736Z,102805.08
2023-05-05T10:45:40.184Z,102804.64
2023-05-05T10:46:44.373Z,102804.61
2023-05-05T10:47:48.182Z,102804.95
2023-05-05T10:48:56.841Z,102804.98
2023-05-05T10:50:27.020Z,102804.23
2023-05-05T10:51:50.086Z,102803.75
2023-05-05T10:53:10.953Z,102800.73
2023-05-05T10:54:39.808Z,102806.50
2023-05-05T10:55:54.935Z,102801.76
2023-05-05T10:57:04.942Z,102801.79
2023-05-05T10:58:07.834Z,102808.20
2023-05-05T10:59:47.574Z,102802.21
2023-05-05T11:00:51.251Z,102801.40
2023-05-05T11:01:54.245Z,102801.56
2023-05-05T11:03:18.706Z,102795.45
2023-05-05T11:04:23.534Z,102802.96
2023-05-05T11:05:26.781Z,102800.00
2023-05-05T11:06:30.830Z,102798.38
2023-05-05T11:07:34.556Z,102798.23
2023-05-05T11:08:39.694Z,102792.79
2023-05-05T11:10:01.621Z,102792.09
2023-05-05T11:11:06.107Z,102793.10
2023-05-05T11:12:09.165Z,102785.30
2023-05-05T11:13:15.054Z,102784.94
2023-05-05T11:14:24.093Z,102786.69
2023-05-05T11:15:29.988Z,102790.92
2023-05-05T11:16:44.982Z,102776.88
2023-05-05T11:17:48.337Z,102780.30
2023-05-05T11:18:51.249Z,102784.84
2023-05-05T11:19:54.116Z,102780.09
2023-05-05T11:20:59.809Z,102782.32
2023-05-05T11:22:03.254Z,102780.65
2023-05-05T11:23:06.061Z,102778.31
2023-05-05T11:24:27.704Z,102778.94
2023-05-05T11:25:37.373Z,102776.88
2023-05-05T11:26:53.758Z,102774.48
2023-05-05T11:28:18.355Z,102774.56
2023-05-05T11:29:21.422Z,102776.52
2023-05-05T11:30:24.238Z,102773.98
2023-05-05T11:31:27.816Z,102776.05
2023-05-05T11:32:30.854Z,102779.55
2023-05-05T11:33:37.794Z,102778.99
2023-05-05T11:34:49.848Z,102772.42
2023-05-05T11:35:56.028Z,102775.80
2023-05-05T11:37:07.395Z,102780.88
2023-05-05T11:38:10.431Z,102771.49
2023-05-05T11:39:27.476Z,102778.52
2023-05-05T11:40:35.023Z,102775.14
2023-05-05T11:42:07.983Z,102776.79
2023-05-05T11:43:13.211Z,102774.81
2023-05-05T11:44:17.378Z,102770.84
2023-05-05T11:45:25.027Z,102772.44
2023-05-05T11:46:27.890Z,102767.45
2023-05-05T11:47:32.073Z,102768.36
2023-05-05T11:48:47.106Z,102775.41
2023-05-05T11:49:50.231Z,102778.73
2023-05-05T11:50:54.017Z,102774.00
2023-05-05T11:52:00.975Z,102779.31
2023-05-05T11:53:04.678Z,102777.23
2023-05-05T11:54:07.543Z,102777.48
2023-05-05T11:55:10.982Z,102774.34
2023-05-05T11:56:19.225Z,102777.19
2023-05-05T11:57:28.372Z,102774.45
2023-05-05T11:58:31.168Z,102778.17
2023-05-05T12:00:08.126Z,102774.60
2023-05-05T12:01:11.799Z,102769.14
2023-05-05T12:02:21.254Z,102769.48
2023-05-05T12:03:24.463Z,102774.36
2023-05-05T12:04:27.490Z,102773.00
2023-05-05T12:05:30.826Z,102775.88
2023-05-05T12:06:34.101Z,102769.23
2023-05-05T12:07:37.068Z,102770.24
2023-05-05T12:08:41.160Z,102774.27
2023-05-05T12:09:45.866Z,102771.43
2023-05-05T12:10:48.681Z,102773.89
2023-05-05T12:11:56.960Z,102769.48
2023-05-05T12:13:00.060Z,102773.13
2023-05-05T12:14:10.499Z,102773.14
2023-05-05T12:15:13.235Z,102773.88
2023-05-05T12:16:16.693Z,102774.29
2023-05-05T12:17:23.423Z,102773.65
2023-05-05T12:18:26.594Z,102772.36
2023-05-05T12:19:33.112Z,102771.65
2023-05-05T12:20:36.634Z,102765.71
2023-05-05T12:21:39.552Z,102766.52
2023-05-05T12:22:42.474Z,102762.38
2023-05-05T12:23:45.796Z,102763.94
2023-05-05T12:24:55.109Z,102764.14
2023-05-05T12:25:57.956Z,102761.64
2023-05-05T12:27:11.123Z,102759.38
2023-05-05T12:28:13.983Z,102759.39
2023-05-05T12:29:29.726Z,102764.33
2023-05-05T12:30:32.621Z,102762.21
2023-05-05T12:31:38.933Z,102763.61
2023-05-05T12:32:42.314Z,102760.38
2023-05-05T12:33:45.879Z,102759.91
2023-05-05T12:34:50.644Z,102761.05
2023-05-05T12:35:53.564Z,102759.13
2023-05-05T12:36:56.405Z,102755.42